sensor_id;sensor_type;location;lat;lon;timestamp;P1;durP1;ratioP1;P2;durP2;ratioP2
9473;SDS011;8865;47.636;7.692;2022-10-16T00:01:30;5.43;;;1.80;;
9473;SDS011;8865;47.636;7.692;2022-10-16T00:03:57;7.00;;;1.80;;
9473;SDS011;8865;47.636;7.692;2022-10-16T00:06:25;6.20;;;2.03;;
9473;SDS011;8865;47.636;7.692;2022-10-16T00:08:52;4.97;;;1.63;;
9473;SDS011;8865;47.636;7.692;2022-10-16T00:11:22;9.63;;;1.73;;
9473;SDS011;8865;47.636;7.692;2022-10-16T00:13:50;8.17;;;1.90;;
9473;SDS011;8865;47.636;7.692;2022-10-16T00:16:19;7.47;;;1.90;;
9473;SDS011;8865;47.636;7.692;2022-10-16T00:18:46;7.10;;;2.00;;
9473;SDS011;8865;47.636;7.692;2022-10-16T00:21:13;5.63;;;1.60;;
9473;SDS011;8865;47.636;7.692;2022-10-16T00:23:41;3.83;;;1.60;;
9473;SDS011;8865;47.636;7.692;2022-10-16T00:26:08;6.83;;;2.00;;
9473;SDS011;8865;47.636;7.692;2022-10-16T00:28:36;6.23;;;2.10;;
9473;SDS011;8865;47.636;7.692;2022-10-16T00:31:03;5.13;;;1.90;;
9473;SDS011;8865;47.636;7.692;2022-10-16T00:33:30;5.70;;;1.80;;
9473;SDS011;8865;47.636;7.692;2022-10-16T00:36:00;10.23;;;2.10;;
9473;SDS011;8865;47.636;7.692;2022-10-16T00:38:28;10.10;;;2.07;;
9473;SDS011;8865;47.636;7.692;2022-10-16T00:40:54;6.63;;;1.70;;
9473;SDS011;8865;47.636;7.692;2022-10-16T00:46:15;6.57;;;1.80;;
9473;SDS011;8865;47.636;7.692;2022-10-16T00:48:50;3.57;;;1.67;;
9473;SDS011;8865;47.636;7.692;2022-10-16T00:51:22;4.03;;;1.90;;
9473;SDS011;8865;47.636;7.692;2022-10-16T00:53:51;3.23;;;1.70;;
9473;SDS011;8865;47.636;7.692;2022-10-16T00:56:18;5.67;;;1.70;;
9473;SDS011;8865;47.636;7.692;2022-10-16T00:58:44;6.03;;;2.03;;
9473;SDS011;8865;47.636;7.692;2022-10-16T01:01:10;4.90;;;1.67;;
9473;SDS011;8865;47.636;7.692;2022-10-16T01:03:36;7.50;;;1.97;;
9473;SDS011;8865;47.636;7.692;2022-10-16T01:11:28;3.20;;;1.70;;
9473;SDS011;8865;47.636;7.692;2022-10-16T01:13:57;8.63;;;1.80;;
9473;SDS011;8865;47.636;7.692;2022-10-16T01:17:03;7.10;;;2.03;;
9473;SDS011;8865;47.636;7.692;2022-10-16T01:22:06;6.23;;;1.63;;
9473;SDS011;8865;47.636;7.692;2022-10-16T01:24:43;6.87;;;2.00;;
9473;SDS011;8865;47.636;7.692;2022-10-16T01:27:15;4.27;;;1.93;;
9473;SDS011;8865;47.636;7.692;2022-10-16T01:30:10;4.17;;;2.40;;
9473;SDS011;8865;47.636;7.692;2022-10-16T01:32:55;2.20;;;1.67;;
9473;SDS011;8865;47.636;7.692;2022-10-16T01:35:25;2.30;;;1.80;;
9473;SDS011;8865;47.636;7.692;2022-10-16T01:37:57;4.70;;;1.57;;
9473;SDS011;8865;47.636;7.692;2022-10-16T01:40:37;2.67;;;1.50;;
9473;SDS011;8865;47.636;7.692;2022-10-16T01:43:10;4.33;;;1.97;;
9473;SDS011;8865;47.636;7.692;2022-10-16T01:45:40;5.23;;;1.57;;
9473;SDS011;8865;47.636;7.692;2022-10-16T01:48:10;3.40;;;1.60;;
9473;SDS011;8865;47.636;7.692;2022-10-16T01:50:39;7.50;;;2.10;;
9473;SDS011;8865;47.636;7.692;2022-10-16T01:53:09;1.97;;;1.33;;
9473;SDS011;8865;47.636;7.692;2022-10-16T01:55:39;5.30;;;1.53;;
9473;SDS011;8865;47.636;7.692;2022-10-16T01:58:10;2.93;;;1.50;;
9473;SDS011;8865;47.636;7.692;2022-10-16T02:00:40;5.57;;;1.80;;
9473;SDS011;8865;47.636;7.692;2022-10-16T02:03:09;3.27;;;1.77;;
9473;SDS011;8865;47.636;7.692;2022-10-16T02:05:42;3.47;;;1.67;;
9473;SDS011;8865;47.636;7.692;2022-10-16T02:08:12;5.90;;;1.50;;
9473;SDS011;8865;47.636;7.692;2022-10-16T02:10:39;5.10;;;1.70;;
9473;SDS011;8865;47.636;7.692;2022-10-16T02:15:54;5.07;;;1.37;;
9473;SDS011;8865;47.636;7.692;2022-10-16T02:18:20;10.60;;;1.80;;
9473;SDS011;8865;47.636;7.692;2022-10-16T02:21:22;5.23;;;1.70;;
9473;SDS011;8865;47.636;7.692;2022-10-16T02:26:13;2.50;;;1.60;;
9473;SDS011;8865;47.636;7.692;2022-10-16T02:28:46;4.70;;;1.70;;
9473;SDS011;8865;47.636;7.692;2022-10-16T02:31:18;5.47;;;1.70;;
9473;SDS011;8865;47.636;7.692;2022-10-16T02:33:51;6.03;;;1.47;;
9473;SDS011;8865;47.636;7.692;2022-10-16T02:36:20;5.93;;;1.70;;
9473;SDS011;8865;47.636;7.692;2022-10-16T02:38:47;6.37;;;1.50;;
9473;SDS011;8865;47.636;7.692;2022-10-16T02:41:13;6.80;;;1.60;;
9473;SDS011;8865;47.636;7.692;2022-10-16T02:43:39;4.40;;;1.77;;
9473;SDS011;8865;47.636;7.692;2022-10-16T02:46:05;4.73;;;1.30;;
9473;SDS011;8865;47.636;7.692;2022-10-16T02:48:31;8.77;;;1.80;;
9473;SDS011;8865;47.636;7.692;2022-10-16T02:50:57;5.80;;;1.70;;
9473;SDS011;8865;47.636;7.692;2022-10-16T02:53:23;4.93;;;1.47;;
9473;SDS011;8865;47.636;7.692;2022-10-16T02:55:49;7.17;;;1.50;;
9473;SDS011;8865;47.636;7.692;2022-10-16T02:58:15;5.17;;;1.30;;
9473;SDS011;8865;47.636;7.692;2022-10-16T03:00:41;3.67;;;1.70;;
9473;SDS011;8865;47.636;7.692;2022-10-16T03:03:07;7.07;;;1.67;;
9473;SDS011;8865;47.636;7.692;2022-10-16T03:05:33;4.03;;;1.63;;
9473;SDS011;8865;47.636;7.692;2022-10-16T03:07:59;4.90;;;1.50;;
9473;SDS011;8865;47.636;7.692;2022-10-16T03:10:26;5.30;;;1.70;;
9473;SDS011;8865;47.636;7.692;2022-10-16T03:12:53;8.10;;;1.93;;
9473;SDS011;8865;47.636;7.692;2022-10-16T03:15:19;4.23;;;1.37;;
9473;SDS011;8865;47.636;7.692;2022-10-16T03:17:44;4.27;;;1.73;;
9473;SDS011;8865;47.636;7.692;2022-10-16T03:20:10;3.10;;;1.70;;
9473;SDS011;8865;47.636;7.692;2022-10-16T03:22:36;7.03;;;1.77;;
9473;SDS011;8865;47.636;7.692;2022-10-16T03:25:02;6.50;;;1.33;;
9473;SDS011;8865;47.636;7.692;2022-10-16T03:27:29;7.63;;;1.60;;
9473;SDS011;8865;47.636;7.692;2022-10-16T03:29:54;4.70;;;1.77;;
9473;SDS011;8865;47.636;7.692;2022-10-16T03:32:20;1.97;;;1.30;;
9473;SDS011;8865;47.636;7.692;2022-10-16T03:34:47;6.77;;;1.70;;
9473;SDS011;8865;47.636;7.692;2022-10-16T03:37:13;6.90;;;1.60;;
9473;SDS011;8865;47.636;7.692;2022-10-16T03:39:39;7.00;;;1.87;;
9473;SDS011;8865;47.636;7.692;2022-10-16T03:42:04;5.83;;;1.50;;
9473;SDS011;8865;47.636;7.692;2022-10-16T03:44:31;8.07;;;1.53;;
9473;SDS011;8865;47.636;7.692;2022-10-16T03:46:57;4.73;;;1.30;;
9473;SDS011;8865;47.636;7.692;2022-10-16T03:49:22;4.23;;;1.50;;
9473;SDS011;8865;47.636;7.692;2022-10-16T03:51:48;4.17;;;1.40;;
9473;SDS011;8865;47.636;7.692;2022-10-16T03:54:14;4.23;;;1.50;;
9473;SDS011;8865;47.636;7.692;2022-10-16T03:56:40;4.87;;;1.47;;
9473;SDS011;8865;47.636;7.692;2022-10-16T03:59:06;3.97;;;1.33;;
9473;SDS011;8865;47.636;7.692;2022-10-16T04:01:32;5.63;;;1.67;;
9473;SDS011;8865;47.636;7.692;2022-10-16T04:03:58;5.20;;;1.40;;
9473;SDS011;8865;47.636;7.692;2022-10-16T04:06:24;5.97;;;1.50;;
9473;SDS011;8865;47.636;7.692;2022-10-16T04:08:50;3.57;;;1.43;;
9473;SDS011;8865;47.636;7.692;2022-10-16T04:11:16;5.20;;;1.30;;
9473;SDS011;8865;47.636;7.692;2022-10-16T04:13:42;5.53;;;1.57;;
9473;SDS011;8865;47.636;7.692;2022-10-16T04:16:09;3.83;;;1.30;;
9473;SDS011;8865;47.636;7.692;2022-10-16T04:18:35;3.80;;;1.33;;
9473;SDS011;8865;47.636;7.692;2022-10-16T04:21:02;3.67;;;1.30;;
9473;SDS011;8865;47.636;7.692;2022-10-16T04:23:30;6.83;;;1.50;;
9473;SDS011;8865;47.636;7.692;2022-10-16T04:25:56;4.83;;;1.47;;
9473;SDS011;8865;47.636;7.692;2022-10-16T04:28:22;4.40;;;1.60;;
9473;SDS011;8865;47.636;7.692;2022-10-16T04:30:48;3.80;;;1.47;;
9473;SDS011;8865;47.636;7.692;2022-10-16T04:33:14;5.90;;;1.50;;
9473;SDS011;8865;47.636;7.692;2022-10-16T04:35:40;6.83;;;1.50;;
9473;SDS011;8865;47.636;7.692;2022-10-16T04:38:06;6.10;;;1.53;;
9473;SDS011;8865;47.636;7.692;2022-10-16T04:40:32;8.73;;;1.63;;
9473;SDS011;8865;47.636;7.692;2022-10-16T04:42:58;3.60;;;1.30;;
9473;SDS011;8865;47.636;7.692;2022-10-16T04:45:25;3.73;;;1.37;;
9473;SDS011;8865;47.636;7.692;2022-10-16T04:47:51;2.73;;;1.27;;
9473;SDS011;8865;47.636;7.692;2022-10-16T04:50:17;2.77;;;1.37;;
9473;SDS011;8865;47.636;7.692;2022-10-16T04:52:42;8.17;;;1.60;;
9473;SDS011;8865;47.636;7.692;2022-10-16T04:55:08;5.93;;;1.77;;
9473;SDS011;8865;47.636;7.692;2022-10-16T04:57:34;5.13;;;1.60;;
9473;SDS011;8865;47.636;7.692;2022-10-16T05:00:00;6.03;;;3.00;;
9473;SDS011;8865;47.636;7.692;2022-10-16T05:02:26;4.80;;;2.97;;
9473;SDS011;8865;47.636;7.692;2022-10-16T05:04:52;5.90;;;3.00;;
9473;SDS011;8865;47.636;7.692;2022-10-16T05:07:18;6.13;;;2.80;;
9473;SDS011;8865;47.636;7.692;2022-10-16T05:09:44;5.23;;;2.37;;
9473;SDS011;8865;47.636;7.692;2022-10-16T05:12:10;5.30;;;2.40;;
9473;SDS011;8865;47.636;7.692;2022-10-16T05:14:36;3.47;;;1.73;;
9473;SDS011;8865;47.636;7.692;2022-10-16T05:17:02;8.03;;;2.07;;
9473;SDS011;8865;47.636;7.692;2022-10-16T05:19:28;3.37;;;1.70;;
9473;SDS011;8865;47.636;7.692;2022-10-16T05:21:54;4.20;;;1.40;;
9473;SDS011;8865;47.636;7.692;2022-10-16T05:24:20;7.77;;;2.13;;
9473;SDS011;8865;47.636;7.692;2022-10-16T05:26:47;7.83;;;2.70;;
9473;SDS011;8865;47.636;7.692;2022-10-16T05:29:13;5.50;;;1.60;;
9473;SDS011;8865;47.636;7.692;2022-10-16T05:31:39;7.07;;;1.83;;
9473;SDS011;8865;47.636;7.692;2022-10-16T05:34:05;6.57;;;1.70;;
9473;SDS011;8865;47.636;7.692;2022-10-16T05:36:31;5.23;;;1.70;;
9473;SDS011;8865;47.636;7.692;2022-10-16T05:38:57;4.33;;;1.60;;
9473;SDS011;8865;47.636;7.692;2022-10-16T05:41:23;4.87;;;1.97;;
9473;SDS011;8865;47.636;7.692;2022-10-16T05:43:51;3.70;;;1.40;;
9473;SDS011;8865;47.636;7.692;2022-10-16T05:46:19;4.23;;;1.40;;
9473;SDS011;8865;47.636;7.692;2022-10-16T05:48:45;3.83;;;1.40;;
9473;SDS011;8865;47.636;7.692;2022-10-16T05:51:12;4.37;;;1.53;;
9473;SDS011;8865;47.636;7.692;2022-10-16T05:53:40;3.00;;;1.77;;
9473;SDS011;8865;47.636;7.692;2022-10-16T05:56:08;3.83;;;1.40;;
9473;SDS011;8865;47.636;7.692;2022-10-16T05:58:36;3.30;;;1.60;;
9473;SDS011;8865;47.636;7.692;2022-10-16T06:01:04;4.20;;;1.77;;
9473;SDS011;8865;47.636;7.692;2022-10-16T06:03:39;3.33;;;1.83;;
9473;SDS011;8865;47.636;7.692;2022-10-16T06:06:15;3.53;;;2.03;;
9473;SDS011;8865;47.636;7.692;2022-10-16T06:08:46;5.57;;;1.70;;
9473;SDS011;8865;47.636;7.692;2022-10-16T06:11:14;4.93;;;1.60;;
9473;SDS011;8865;47.636;7.692;2022-10-16T06:13:42;9.00;;;2.03;;
9473;SDS011;8865;47.636;7.692;2022-10-16T06:16:09;5.57;;;1.83;;
9473;SDS011;8865;47.636;7.692;2022-10-16T06:18:36;6.27;;;2.00;;
9473;SDS011;8865;47.636;7.692;2022-10-16T06:21:08;4.37;;;2.00;;
9473;SDS011;8865;47.636;7.692;2022-10-16T06:23:36;3.30;;;1.80;;
9473;SDS011;8865;47.636;7.692;2022-10-16T06:26:10;1.97;;;1.70;;
9473;SDS011;8865;47.636;7.692;2022-10-16T06:28:37;4.00;;;1.60;;
9473;SDS011;8865;47.636;7.692;2022-10-16T06:31:04;7.90;;;1.80;;
9473;SDS011;8865;47.636;7.692;2022-10-16T06:33:31;3.47;;;1.40;;
9473;SDS011;8865;47.636;7.692;2022-10-16T06:36:04;3.80;;;1.70;;
9473;SDS011;8865;47.636;7.692;2022-10-16T06:38:31;3.47;;;1.57;;
9473;SDS011;8865;47.636;7.692;2022-10-16T06:40:57;9.70;;;1.57;;
9473;SDS011;8865;47.636;7.692;2022-10-16T06:43:24;3.83;;;1.70;;
9473;SDS011;8865;47.636;7.692;2022-10-16T06:45:51;3.83;;;1.77;;
9473;SDS011;8865;47.636;7.692;2022-10-16T06:48:18;4.93;;;1.77;;
9473;SDS011;8865;47.636;7.692;2022-10-16T06:50:44;4.70;;;1.73;;
9473;SDS011;8865;47.636;7.692;2022-10-16T06:53:10;8.47;;;1.57;;
9473;SDS011;8865;47.636;7.692;2022-10-16T06:55:36;4.23;;;1.60;;
9473;SDS011;8865;47.636;7.692;2022-10-16T06:58:02;4.23;;;1.50;;
9473;SDS011;8865;47.636;7.692;2022-10-16T07:00:28;6.47;;;1.60;;
9473;SDS011;8865;47.636;7.692;2022-10-16T07:02:54;4.93;;;1.50;;
9473;SDS011;8865;47.636;7.692;2022-10-16T07:05:19;6.03;;;1.53;;
9473;SDS011;8865;47.636;7.692;2022-10-16T07:07:45;5.20;;;1.70;;
9473;SDS011;8865;47.636;7.692;2022-10-16T07:10:11;4.90;;;1.60;;
9473;SDS011;8865;47.636;7.692;2022-10-16T07:12:37;5.63;;;1.63;;
9473;SDS011;8865;47.636;7.692;2022-10-16T07:15:03;3.37;;;1.90;;
9473;SDS011;8865;47.636;7.692;2022-10-16T07:17:29;3.90;;;1.80;;
9473;SDS011;8865;47.636;7.692;2022-10-16T07:19:55;4.50;;;1.70;;
9473;SDS011;8865;47.636;7.692;2022-10-16T07:22:21;4.33;;;1.60;;
9473;SDS011;8865;47.636;7.692;2022-10-16T07:24:47;3.43;;;1.80;;
9473;SDS011;8865;47.636;7.692;2022-10-16T07:27:13;7.60;;;1.87;;
9473;SDS011;8865;47.636;7.692;2022-10-16T07:29:41;6.80;;;1.80;;
9473;SDS011;8865;47.636;7.692;2022-10-16T07:32:07;6.43;;;1.67;;
9473;SDS011;8865;47.636;7.692;2022-10-16T07:34:33;4.47;;;2.00;;
9473;SDS011;8865;47.636;7.692;2022-10-16T07:36:59;5.23;;;2.17;;
9473;SDS011;8865;47.636;7.692;2022-10-16T07:39:25;4.50;;;1.87;;
9473;SDS011;8865;47.636;7.692;2022-10-16T07:41:50;9.20;;;1.97;;
9473;SDS011;8865;47.636;7.692;2022-10-16T07:44:16;4.00;;;2.00;;
9473;SDS011;8865;47.636;7.692;2022-10-16T07:46:42;4.40;;;1.80;;
9473;SDS011;8865;47.636;7.692;2022-10-16T07:49:08;5.43;;;1.73;;
9473;SDS011;8865;47.636;7.692;2022-10-16T07:51:34;4.30;;;1.80;;
9473;SDS011;8865;47.636;7.692;2022-10-16T07:54:00;5.03;;;2.00;;
9473;SDS011;8865;47.636;7.692;2022-10-16T07:56:27;3.90;;;2.13;;
9473;SDS011;8865;47.636;7.692;2022-10-16T07:58:53;4.83;;;1.70;;
9473;SDS011;8865;47.636;7.692;2022-10-16T08:01:19;6.10;;;1.50;;
9473;SDS011;8865;47.636;7.692;2022-10-16T08:03:49;2.43;;;1.80;;
9473;SDS011;8865;47.636;7.692;2022-10-16T08:06:17;6.33;;;1.90;;
9473;SDS011;8865;47.636;7.692;2022-10-16T08:08:44;5.30;;;1.50;;
9473;SDS011;8865;47.636;7.692;2022-10-16T08:11:10;3.80;;;2.17;;
9473;SDS011;8865;47.636;7.692;2022-10-16T08:13:36;5.57;;;1.53;;
9473;SDS011;8865;47.636;7.692;2022-10-16T08:16:02;3.87;;;1.50;;
9473;SDS011;8865;47.636;7.692;2022-10-16T08:18:39;4.67;;;1.47;;
9473;SDS011;8865;47.636;7.692;2022-10-16T08:21:06;3.67;;;1.47;;
9473;SDS011;8865;47.636;7.692;2022-10-16T08:23:37;3.37;;;1.30;;
9473;SDS011;8865;47.636;7.692;2022-10-16T08:26:05;2.53;;;1.20;;
9473;SDS011;8865;47.636;7.692;2022-10-16T08:28:31;3.77;;;1.20;;
9473;SDS011;8865;47.636;7.692;2022-10-16T08:31:11;4.37;;;1.27;;
9473;SDS011;8865;47.636;7.692;2022-10-16T08:33:40;1.97;;;1.40;;
9473;SDS011;8865;47.636;7.692;2022-10-16T08:36:09;2.07;;;1.10;;
9473;SDS011;8865;47.636;7.692;2022-10-16T08:38:36;10.50;;;1.63;;
9473;SDS011;8865;47.636;7.692;2022-10-16T08:46:43;3.85;;;1.30;;
9473;SDS011;8865;47.636;7.692;2022-10-16T08:49:16;3.63;;;1.30;;
9473;SDS011;8865;47.636;7.692;2022-10-16T08:51:43;4.47;;;1.30;;
9473;SDS011;8865;47.636;7.692;2022-10-16T09:52:22;2.33;;;1.30;;
9473;SDS011;8865;47.636;7.692;2022-10-16T09:54:53;2.67;;;1.35;;
9473;SDS011;8865;47.636;7.692;2022-10-16T09:57:20;1.70;;;1.40;;
9473;SDS011;8865;47.636;7.692;2022-10-16T09:59:56;2.45;;;1.05;;
9473;SDS011;8865;47.636;7.692;2022-10-16T10:02:31;1.42;;;1.25;;
9473;SDS011;8865;47.636;7.692;2022-10-16T10:05:01;3.67;;;1.33;;
9473;SDS011;8865;47.636;7.692;2022-10-16T10:07:33;6.20;;;5.00;;
9473;SDS011;8865;47.636;7.692;2022-10-16T10:10:05;3.95;;;1.30;;
9473;SDS011;8865;47.636;7.692;2022-10-16T10:12:45;2.28;;;1.40;;
9473;SDS011;8865;47.636;7.692;2022-10-16T10:15:11;2.67;;;1.50;;
9473;SDS011;8865;47.636;7.692;2022-10-16T10:17:45;2.67;;;1.30;;
9473;SDS011;8865;47.636;7.692;2022-10-16T10:23:00;2.55;;;1.52;;
9473;SDS011;8865;47.636;7.692;2022-10-16T10:44:10;3.17;;;1.00;;
9473;SDS011;8865;47.636;7.692;2022-10-16T10:46:43;2.25;;;1.40;;
9473;SDS011;8865;47.636;7.692;2022-10-16T10:54:41;1.30;;;1.08;;
9473;SDS011;8865;47.636;7.692;2022-10-16T11:05:45;3.70;;;0.88;;
9473;SDS011;8865;47.636;7.692;2022-10-16T11:17:39;3.42;;;1.20;;
9473;SDS011;8865;47.636;7.692;2022-10-16T11:20:16;3.60;;;1.33;;
9473;SDS011;8865;47.636;7.692;2022-10-16T11:25:40;5.47;;;1.40;;
9473;SDS011;8865;47.636;7.692;2022-10-16T11:28:11;4.53;;;1.10;;
9473;SDS011;8865;47.636;7.692;2022-10-16T11:33:30;4.60;;;1.20;;
9473;SDS011;8865;47.636;7.692;2022-10-16T11:38:55;4.60;;;1.30;;
9473;SDS011;8865;47.636;7.692;2022-10-16T11:44:20;4.20;;;1.40;;
9473;SDS011;8865;47.636;7.692;2022-10-16T11:49:36;2.75;;;1.00;;
9473;SDS011;8865;47.636;7.692;2022-10-16T11:54:51;4.35;;;1.10;;
9473;SDS011;8865;47.636;7.692;2022-10-16T11:57:29;1.20;;;1.00;;
9473;SDS011;8865;47.636;7.692;2022-10-16T12:00:01;2.42;;;1.38;;
9473;SDS011;8865;47.636;7.692;2022-10-16T12:08:48;10.05;;;3.28;;
9473;SDS011;8865;47.636;7.692;2022-10-16T12:11:24;5.70;;;2.10;;
9473;SDS011;8865;47.636;7.692;2022-10-16T12:13:50;8.95;;;3.45;;
9473;SDS011;8865;47.636;7.692;2022-10-16T12:18:47;13.65;;;4.30;;
9473;SDS011;8865;47.636;7.692;2022-10-16T12:21:14;10.27;;;3.03;;
9473;SDS011;8865;47.636;7.692;2022-10-16T12:26:31;5.00;;;1.77;;
9473;SDS011;8865;47.636;7.692;2022-10-16T12:29:13;2.38;;;0.88;;
9473;SDS011;8865;47.636;7.692;2022-10-16T12:31:48;3.35;;;1.30;;
9473;SDS011;8865;47.636;7.692;2022-10-16T12:34:23;2.85;;;1.15;;
9473;SDS011;8865;47.636;7.692;2022-10-16T12:36:54;2.88;;;1.15;;
9473;SDS011;8865;47.636;7.692;2022-10-16T14:08:26;2.25;;;1.00;;
9473;SDS011;8865;47.636;7.692;2022-10-16T14:10:55;5.18;;;1.00;;
9473;SDS011;8865;47.636;7.692;2022-10-16T14:13:34;3.55;;;0.90;;
9473;SDS011;8865;47.636;7.692;2022-10-16T14:16:07;1.30;;;1.00;;
9473;SDS011;8865;47.636;7.692;2022-10-16T14:18:35;3.78;;;1.35;;
9473;SDS011;8865;47.636;7.692;2022-10-16T14:21:07;3.78;;;1.20;;
9473;SDS011;8865;47.636;7.692;2022-10-16T14:23:39;3.08;;;1.00;;
9473;SDS011;8865;47.636;7.692;2022-10-16T14:28:36;2.63;;;1.10;;
9473;SDS011;8865;47.636;7.692;2022-10-16T14:31:17;2.45;;;0.95;;
9473;SDS011;8865;47.636;7.692;2022-10-16T14:33:51;2.15;;;0.95;;
9473;SDS011;8865;47.636;7.692;2022-10-16T14:36:16;1.73;;;1.05;;
9473;SDS011;8865;47.636;7.692;2022-10-16T14:41:30;1.25;;;1.00;;
9473;SDS011;8865;47.636;7.692;2022-10-16T14:44:02;2.38;;;1.08;;
9473;SDS011;8865;47.636;7.692;2022-10-16T14:46:31;3.85;;;1.20;;
9473;SDS011;8865;47.636;7.692;2022-10-16T14:49:13;4.57;;;2.70;;
9473;SDS011;8865;47.636;7.692;2022-10-16T14:51:43;2.38;;;1.45;;
9473;SDS011;8865;47.636;7.692;2022-10-16T14:54:16;3.70;;;1.52;;
9473;SDS011;8865;47.636;7.692;2022-10-16T14:59:23;2.65;;;0.90;;
9473;SDS011;8865;47.636;7.692;2022-10-16T15:01:53;4.03;;;1.38;;
9473;SDS011;8865;47.636;7.692;2022-10-16T15:04:19;3.17;;;1.30;;
9473;SDS011;8865;47.636;7.692;2022-10-16T15:06:45;5.70;;;1.65;;
9473;SDS011;8865;47.636;7.692;2022-10-16T15:09:11;2.73;;;1.30;;
9473;SDS011;8865;47.636;7.692;2022-10-16T15:11:37;1.60;;;1.20;;
9473;SDS011;8865;47.636;7.692;2022-10-16T15:14:04;4.25;;;1.25;;
9473;SDS011;8865;47.636;7.692;2022-10-16T15:16:30;4.30;;;1.43;;
9473;SDS011;8865;47.636;7.692;2022-10-16T15:18:57;2.93;;;1.17;;
9473;SDS011;8865;47.636;7.692;2022-10-16T15:23:57;7.63;;;5.43;;
9473;SDS011;8865;47.636;7.692;2022-10-16T15:26:25;9.77;;;8.27;;
9473;SDS011;8865;47.636;7.692;2022-10-16T15:28:53;4.07;;;2.17;;
9473;SDS011;8865;47.636;7.692;2022-10-16T15:31:19;4.03;;;1.50;;
9473;SDS011;8865;47.636;7.692;2022-10-16T15:33:45;4.97;;;1.43;;
9473;SDS011;8865;47.636;7.692;2022-10-16T15:36:23;2.60;;;1.30;;
9473;SDS011;8865;47.636;7.692;2022-10-16T15:38:53;2.57;;;1.40;;
9473;SDS011;8865;47.636;7.692;2022-10-16T15:41:20;2.70;;;1.37;;
9473;SDS011;8865;47.636;7.692;2022-10-16T15:43:50;3.30;;;1.40;;
9473;SDS011;8865;47.636;7.692;2022-10-16T15:46:20;4.30;;;1.40;;
9473;SDS011;8865;47.636;7.692;2022-10-16T15:48:47;3.23;;;1.80;;
9473;SDS011;8865;47.636;7.692;2022-10-16T15:51:15;3.47;;;2.90;;
9473;SDS011;8865;47.636;7.692;2022-10-16T15:53:41;6.27;;;3.10;;
9473;SDS011;8865;47.636;7.692;2022-10-16T15:56:08;4.27;;;2.97;;
9473;SDS011;8865;47.636;7.692;2022-10-16T15:58:36;7.03;;;2.90;;
9473;SDS011;8865;47.636;7.692;2022-10-16T16:01:02;5.30;;;2.63;;
9473;SDS011;8865;47.636;7.692;2022-10-16T16:03:30;4.20;;;2.20;;
9473;SDS011;8865;47.636;7.692;2022-10-16T16:05:56;3.30;;;2.27;;
9473;SDS011;8865;47.636;7.692;2022-10-16T16:08:22;4.53;;;2.03;;
9473;SDS011;8865;47.636;7.692;2022-10-16T16:10:58;6.30;;;1.87;;
9473;SDS011;8865;47.636;7.692;2022-10-16T16:13:25;10.07;;;2.10;;
9473;SDS011;8865;47.636;7.692;2022-10-16T16:15:51;2.20;;;1.83;;
9473;SDS011;8865;47.636;7.692;2022-10-16T16:18:17;5.37;;;2.00;;
9473;SDS011;8865;47.636;7.692;2022-10-16T16:20:43;4.27;;;2.13;;
9473;SDS011;8865;47.636;7.692;2022-10-16T16:23:09;5.93;;;2.13;;
9473;SDS011;8865;47.636;7.692;2022-10-16T16:25:36;6.23;;;2.40;;
9473;SDS011;8865;47.636;7.692;2022-10-16T16:28:02;7.57;;;3.07;;
9473;SDS011;8865;47.636;7.692;2022-10-16T16:30:28;10.27;;;2.30;;
9473;SDS011;8865;47.636;7.692;2022-10-16T16:32:53;10.97;;;2.20;;
9473;SDS011;8865;47.636;7.692;2022-10-16T16:35:19;5.97;;;1.97;;
9473;SDS011;8865;47.636;7.692;2022-10-16T16:37:46;3.20;;;1.80;;
9473;SDS011;8865;47.636;7.692;2022-10-16T16:40:13;4.07;;;2.00;;
9473;SDS011;8865;47.636;7.692;2022-10-16T16:42:39;4.20;;;2.20;;
9473;SDS011;8865;47.636;7.692;2022-10-16T16:45:05;8.30;;;2.20;;
9473;SDS011;8865;47.636;7.692;2022-10-16T16:47:32;9.67;;;2.40;;
9473;SDS011;8865;47.636;7.692;2022-10-16T16:49:58;5.60;;;2.43;;
9473;SDS011;8865;47.636;7.692;2022-10-16T16:52:25;8.30;;;2.37;;
9473;SDS011;8865;47.636;7.692;2022-10-16T16:54:51;9.93;;;2.70;;
9473;SDS011;8865;47.636;7.692;2022-10-16T16:57:20;7.17;;;2.57;;
9473;SDS011;8865;47.636;7.692;2022-10-16T16:59:46;8.40;;;2.53;;
9473;SDS011;8865;47.636;7.692;2022-10-16T17:02:12;10.03;;;2.47;;
9473;SDS011;8865;47.636;7.692;2022-10-16T17:04:38;5.47;;;2.33;;
9473;SDS011;8865;47.636;7.692;2022-10-16T17:07:04;7.57;;;2.70;;
9473;SDS011;8865;47.636;7.692;2022-10-16T17:09:31;8.40;;;2.87;;
9473;SDS011;8865;47.636;7.692;2022-10-16T17:11:58;9.23;;;3.13;;
9473;SDS011;8865;47.636;7.692;2022-10-16T17:14:24;8.27;;;3.27;;
9473;SDS011;8865;47.636;7.692;2022-10-16T17:16:51;9.27;;;2.90;;
9473;SDS011;8865;47.636;7.692;2022-10-16T17:19:18;7.73;;;2.63;;
9473;SDS011;8865;47.636;7.692;2022-10-16T17:21:47;7.20;;;2.70;;
9473;SDS011;8865;47.636;7.692;2022-10-16T17:24:14;8.67;;;2.23;;
9473;SDS011;8865;47.636;7.692;2022-10-16T17:26:40;7.17;;;2.50;;
9473;SDS011;8865;47.636;7.692;2022-10-16T17:29:09;7.27;;;4.57;;
9473;SDS011;8865;47.636;7.692;2022-10-16T17:31:36;12.73;;;6.73;;
9473;SDS011;8865;47.636;7.692;2022-10-16T17:34:03;5.77;;;3.33;;
9473;SDS011;8865;47.636;7.692;2022-10-16T17:36:31;8.03;;;2.97;;
9473;SDS011;8865;47.636;7.692;2022-10-16T17:39:00;11.10;;;2.50;;
9473;SDS011;8865;47.636;7.692;2022-10-16T17:41:29;12.43;;;4.03;;
9473;SDS011;8865;47.636;7.692;2022-10-16T17:43:55;9.80;;;2.43;;
9473;SDS011;8865;47.636;7.692;2022-10-16T17:46:22;7.80;;;2.50;;
9473;SDS011;8865;47.636;7.692;2022-10-16T17:48:50;12.67;;;2.60;;
9473;SDS011;8865;47.636;7.692;2022-10-16T17:51:19;4.23;;;3.10;;
9473;SDS011;8865;47.636;7.692;2022-10-16T17:53:49;16.77;;;7.40;;
9473;SDS011;8865;47.636;7.692;2022-10-16T17:56:17;13.80;;;6.53;;
9473;SDS011;8865;47.636;7.692;2022-10-16T17:58:47;9.13;;;3.17;;
9473;SDS011;8865;47.636;7.692;2022-10-16T18:01:21;11.50;;;3.27;;
9473;SDS011;8865;47.636;7.692;2022-10-16T18:03:53;6.17;;;2.57;;
9473;SDS011;8865;47.636;7.692;2022-10-16T18:06:24;8.90;;;2.93;;
9473;SDS011;8865;47.636;7.692;2022-10-16T18:08:52;8.73;;;2.63;;
9473;SDS011;8865;47.636;7.692;2022-10-16T18:11:20;9.87;;;2.83;;
9473;SDS011;8865;47.636;7.692;2022-10-16T18:13:47;8.37;;;2.87;;
9473;SDS011;8865;47.636;7.692;2022-10-16T18:16:13;8.53;;;2.90;;
9473;SDS011;8865;47.636;7.692;2022-10-16T18:18:41;10.57;;;2.63;;
9473;SDS011;8865;47.636;7.692;2022-10-16T18:21:09;9.00;;;2.73;;
9473;SDS011;8865;47.636;7.692;2022-10-16T18:23:37;6.77;;;2.87;;
9473;SDS011;8865;47.636;7.692;2022-10-16T18:26:04;11.27;;;5.87;;
9473;SDS011;8865;47.636;7.692;2022-10-16T18:28:31;9.77;;;3.60;;
9473;SDS011;8865;47.636;7.692;2022-10-16T18:30:58;8.70;;;4.03;;
9473;SDS011;8865;47.636;7.692;2022-10-16T18:33:26;8.13;;;3.20;;
9473;SDS011;8865;47.636;7.692;2022-10-16T18:35:52;10.03;;;3.40;;
9473;SDS011;8865;47.636;7.692;2022-10-16T18:38:19;8.73;;;3.17;;
9473;SDS011;8865;47.636;7.692;2022-10-16T18:40:45;9.37;;;3.40;;
9473;SDS011;8865;47.636;7.692;2022-10-16T18:43:11;9.40;;;3.37;;
9473;SDS011;8865;47.636;7.692;2022-10-16T18:45:37;8.07;;;2.90;;
9473;SDS011;8865;47.636;7.692;2022-10-16T18:48:04;7.10;;;2.90;;
9473;SDS011;8865;47.636;7.692;2022-10-16T18:50:30;8.73;;;2.67;;
9473;SDS011;8865;47.636;7.692;2022-10-16T18:52:57;6.73;;;2.93;;
9473;SDS011;8865;47.636;7.692;2022-10-16T18:55:23;6.70;;;3.07;;
9473;SDS011;8865;47.636;7.692;2022-10-16T18:57:49;10.83;;;3.30;;
9473;SDS011;8865;47.636;7.692;2022-10-16T19:00:15;8.87;;;3.07;;
9473;SDS011;8865;47.636;7.692;2022-10-16T19:02:41;8.83;;;3.30;;
9473;SDS011;8865;47.636;7.692;2022-10-16T19:05:07;6.30;;;3.07;;
9473;SDS011;8865;47.636;7.692;2022-10-16T19:07:34;8.23;;;3.03;;
9473;SDS011;8865;47.636;7.692;2022-10-16T19:10:00;9.73;;;2.97;;
9473;SDS011;8865;47.636;7.692;2022-10-16T19:12:26;9.23;;;3.20;;
9473;SDS011;8865;47.636;7.692;2022-10-16T19:14:52;11.07;;;3.20;;
9473;SDS011;8865;47.636;7.692;2022-10-16T19:17:18;4.47;;;2.80;;
9473;SDS011;8865;47.636;7.692;2022-10-16T19:19:44;4.43;;;2.80;;
9473;SDS011;8865;47.636;7.692;2022-10-16T19:22:10;4.47;;;2.60;;
9473;SDS011;8865;47.636;7.692;2022-10-16T19:24:39;7.50;;;2.70;;
9473;SDS011;8865;47.636;7.692;2022-10-16T19:27:06;5.07;;;2.60;;
9473;SDS011;8865;47.636;7.692;2022-10-16T19:29:32;4.13;;;2.60;;
9473;SDS011;8865;47.636;7.692;2022-10-16T19:31:58;4.57;;;2.70;;
9473;SDS011;8865;47.636;7.692;2022-10-16T19:34:29;4.10;;;3.00;;